Airports Croatia Dubrovnik Airport

Dubrovnik Airport (LDDU / DBV)

Facts about Dubrovnik Airport

Name Dubrovnik Airport
City Dubrovnik
Country Croatia
ICAO code LDDU
IATA code DBV
Elevation 160.6296 meters (527 feet)

Weather

METAR

Metar data retrieved Friday, 19 July 2024 at 23:55 UTC (11 minutes ago)

LDDU 192330Z 30007KT CAVOK 26/22 Q1011

Live traffic

Navigraph Charts (account required)